createdAt,value
2018-08-16T05:14:08.306Z,98183.41
2018-08-16T05:15:14.059Z,98177.77
2018-08-16T05:16:35.171Z,98181.78
2018-08-16T05:18:59.445Z,98182.30
2018-08-16T05:20:02.747Z,98180.80
2018-08-16T05:21:05.811Z,98172.80
2018-08-16T05:22:14.477Z,98173.97
2018-08-16T05:23:18.753Z,98177.56
2018-08-16T05:24:22.788Z,98180.30
2018-08-16T05:25:25.976Z,98176.66
2018-08-16T05:26:28.812Z,98179.03
2018-08-16T05:27:31.698Z,98177.42
2018-08-16T05:28:34.627Z,98176.53
2018-08-16T05:29:38.056Z,98178.45
2018-08-16T05:30:41.401Z,98175.61
2018-08-16T05:31:45.521Z,98177.55
2018-08-16T05:32:48.893Z,98179.58
2018-08-16T05:33:52.303Z,98177.75
2018-08-16T05:34:56.136Z,98179.34
2018-08-16T05:36:02.750Z,98176.85
2018-08-16T05:37:06.973Z,98173.87
2018-08-16T05:38:10.402Z,98174.74
2018-08-16T05:39:14.423Z,98178.17
2018-08-16T05:40:18.724Z,98174.95
2018-08-16T05:41:21.989Z,98172.97
2018-08-16T05:42:25.805Z,98172.70
2018-08-16T05:43:29.069Z,98169.73
2018-08-16T05:44:33.566Z,98171.45
2018-08-16T05:45:42.114Z,98169.32
2018-08-16T05:46:46.765Z,98174.78
2018-08-16T05:47:50.623Z,98171.73
2018-08-16T05:48:53.843Z,98171.05
2018-08-16T05:50:00.775Z,98168.80
2018-08-16T05:51:04.472Z,98164.72
2018-08-16T05:52:07.612Z,98171.14
2018-08-16T05:53:15.693Z,98171.86
2018-08-16T05:54:23.229Z,98168.83
2018-08-16T05:55:26.152Z,98165.66
2018-08-16T05:56:29.780Z,98163.27
2018-08-16T05:57:34.978Z,98166.95
2018-08-16T05:58:39.542Z,98167.97
2018-08-16T05:59:42.863Z,98167.03
2018-08-16T06:00:45.786Z,98170.88
2018-08-16T06:01:55.739Z,98167.13
2018-08-16T06:05:33.622Z,98168.46
2018-08-16T06:06:39.113Z,98160.95
2018-08-16T06:07:42.655Z,98164.03
2018-08-16T06:08:45.743Z,98163.58
2018-08-16T06:09:51.279Z,98150.33
2018-08-16T06:10:54.891Z,98155.77
2018-08-16T06:11:58.485Z,98156.75
2018-08-16T06:13:01.583Z,98148.73
2018-08-16T06:14:04.839Z,98147.76
2018-08-16T06:15:08.912Z,98153.25
2018-08-16T06:16:13.460Z,98145.68
2018-08-16T06:17:16.674Z,98148.68
2018-08-16T06:18:21.095Z,98145.97
2018-08-16T06:19:24.948Z,98144.39
2018-08-16T06:20:28.140Z,98140.17
2018-08-16T06:21:33.495Z,98135.44
2018-08-16T06:22:36.926Z,98136.02
2018-08-16T06:23:42.243Z,98144.72
2018-08-16T06:24:45.571Z,98138.66
2018-08-16T06:25:49.727Z,98134.54
2018-08-16T06:26:54.073Z,98138.63
2018-08-16T06:27:57.658Z,98138.71
2018-08-16T06:29:01.091Z,98136.10
2018-08-16T06:30:04.614Z,98122.55
2018-08-16T06:31:07.624Z,98122.08
2018-08-16T06:32:11.220Z,98125.32
2018-08-16T06:33:14.707Z,98124.40
2018-08-16T06:34:18.274Z,98130.75
2018-08-16T06:35:22.959Z,98129.97
2018-08-16T06:36:26.061Z,98125.19
2018-08-16T06:37:29.986Z,98124.67
2018-08-16T06:38:32.986Z,98121.50
2018-08-16T06:39:35.990Z,98122.31
2018-08-16T06:40:39.283Z,98118.27
2018-08-16T06:41:42.874Z,98116.94
2018-08-16T06:42:46.591Z,98112.70
2018-08-16T06:43:49.549Z,98114.48
2018-08-16T06:44:53.007Z,98111.93
2018-08-16T06:45:56.228Z,98108.23
2018-08-16T06:47:00.386Z,98104.66
2018-08-16T06:49:12.479Z,98107.80
2018-08-16T06:50:15.400Z,98106.41
2018-08-16T06:51:18.711Z,98101.05
2018-08-16T06:52:23.908Z,98098.39
2018-08-16T06:53:27.405Z,98098.13
2018-08-16T06:54:32.471Z,98101.21
2018-08-16T06:55:35.439Z,98098.48
2018-08-16T06:56:38.298Z,98099.00
2018-08-16T06:57:42.134Z,98093.13
2018-08-16T06:58:48.109Z,98097.48
2018-08-16T06:59:51.669Z,98094.56
2018-08-16T07:00:55.637Z,98094.06
2018-08-16T07:01:59.219Z,98093.75
2018-08-16T07:03:02.830Z,98089.67
2018-08-16T07:04:05.996Z,98091.40
2018-08-16T07:05:09.790Z,98095.23
2018-08-16T07:06:13.219Z,98083.77
2018-08-16T07:07:20.047Z,98090.30
2018-08-16T07:08:24.520Z,98090.72
2018-08-16T07:09:27.541Z,98091.50
2018-08-16T07:10:31.478Z,98088.13
2018-08-16T07:11:35.424Z,98087.91
2018-08-16T07:12:38.412Z,98085.17
2018-08-16T07:13:42.468Z,98093.08
2018-08-16T07:14:47.169Z,98093.08
2018-08-16T07:15:53.033Z,98091.71
2018-08-16T07:16:56.268Z,98095.02
2018-08-16T07:18:00.672Z,98089.79
2018-08-16T07:19:04.937Z,98092.04
2018-08-16T07:20:08.761Z,98094.04
2018-08-16T07:21:12.628Z,98089.04
2018-08-16T07:22:15.870Z,98086.53
2018-08-16T07:23:19.990Z,98086.89
2018-08-16T07:24:22.974Z,98085.98
2018-08-16T07:25:26.401Z,98082.80
2018-08-16T07:26:30.960Z,98085.77
2018-08-16T07:27:34.233Z,98084.97
2018-08-16T07:28:39.130Z,98079.80
2018-08-16T07:29:42.160Z,98075.67
2018-08-16T07:30:45.204Z,98078.66
2018-08-16T07:31:48.299Z,98079.23
2018-08-16T07:32:52.006Z,98075.48
2018-08-16T07:33:55.525Z,98078.84
2018-08-16T07:34:59.504Z,98071.07
2018-08-16T07:36:04.834Z,98079.89
2018-08-16T07:37:09.291Z,98079.23
2018-08-16T07:39:25.944Z,98071.48
2018-08-16T07:40:29.504Z,98071.91
2018-08-16T07:41:33.550Z,98072.85
2018-08-16T07:42:40.453Z,98077.42
2018-08-16T07:43:44.089Z,98075.84
2018-08-16T07:44:51.229Z,98076.81
2018-08-16T07:45:56.168Z,98075.51
2018-08-16T07:46:59.137Z,98077.20
2018-08-16T07:48:03.247Z,98081.19
2018-08-16T07:49:09.051Z,98074.30
2018-08-16T07:50:13.981Z,98074.61
2018-08-16T07:51:17.635Z,98081.52
2018-08-16T07:52:20.745Z,98077.41
2018-08-16T07:53:23.822Z,98081.95
2018-08-16T07:54:27.615Z,98073.28
2018-08-16T07:55:30.699Z,98074.14
2018-08-16T07:56:33.636Z,98078.38
2018-08-16T07:57:37.308Z,98079.86
2018-08-16T07:58:40.741Z,98079.59
2018-08-16T07:59:43.803Z,98079.08
2018-08-16T08:00:51.014Z,98081.05
2018-08-16T08:01:57.456Z,98082.19
2018-08-16T08:03:01.753Z,98081.20
2018-08-16T08:04:06.458Z,98080.20
2018-08-16T08:05:10.475Z,98080.28
2018-08-16T08:06:14.097Z,98079.11
2018-08-16T08:07:18.888Z,98080.71
2018-08-16T08:08:22.891Z,98082.27
2018-08-16T08:09:29.105Z,98080.42
2018-08-16T08:11:46.648Z,98079.55
2018-08-16T08:12:49.789Z,98075.41
2018-08-16T08:15:17.094Z,98083.64
2018-08-16T08:16:21.009Z,98079.59
2018-08-16T08:17:26.097Z,98082.97
2018-08-16T08:18:29.931Z,98079.48
2018-08-16T08:19:33.490Z,98079.37
2018-08-16T08:20:38.618Z,98078.34
2018-08-16T08:21:41.723Z,98073.92
2018-08-16T08:22:46.248Z,98074.45
2018-08-16T08:23:49.974Z,98077.63
2018-08-16T08:24:53.650Z,98077.66
2018-08-16T08:25:57.029Z,98065.66
2018-08-16T08:27:05.075Z,98075.09
2018-08-16T08:28:09.728Z,98080.02
2018-08-16T08:29:17.199Z,98076.95
2018-08-16T08:30:21.773Z,98072.03
2018-08-16T08:31:26.555Z,98074.41
2018-08-16T08:32:30.521Z,98079.55
2018-08-16T08:33:33.693Z,98076.95
2018-08-16T08:34:38.589Z,98083.28
2018-08-16T08:35:48.720Z,98087.81
2018-08-16T08:36:59.411Z,98071.91
2018-08-16T08:38:05.887Z,98069.83
2018-08-16T08:39:13.798Z,98074.91
2018-08-16T08:40:18.028Z,98066.19
2018-08-16T08:41:20.879Z,98070.91
2018-08-16T08:42:25.243Z,98067.42
2018-08-16T08:43:31.188Z,98070.71
2018-08-16T08:44:37.162Z,98068.80
2018-08-16T08:45:46.775Z,98071.42
2018-08-16T08:46:52.724Z,98064.22
2018-08-16T08:47:56.795Z,98080.77
2018-08-16T08:49:00.288Z,98064.78
2018-08-16T08:50:03.320Z,98059.88
2018-08-16T08:51:10.449Z,98061.02
2018-08-16T08:52:14.855Z,98057.91
2018-08-16T08:53:18.287Z,98066.50
2018-08-16T08:54:22.330Z,98057.25
2018-08-16T08:55:27.102Z,98065.47
2018-08-16T08:56:30.014Z,98064.63
2018-08-16T08:57:33.547Z,98068.02
2018-08-16T08:58:43.216Z,98063.97
2018-08-16T08:59:47.391Z,98059.47
2018-08-16T09:00:50.480Z,98057.77
2018-08-16T09:01:59.737Z,98057.86
2018-08-16T09:03:02.650Z,98056.91
2018-08-16T09:04:05.602Z,98051.14
2018-08-16T09:05:08.688Z,98055.72
2018-08-16T09:06:13.210Z,98055.11
2018-08-16T09:07:18.476Z,98048.61
2018-08-16T09:08:21.809Z,98049.77
2018-08-16T09:09:24.976Z,98038.84
2018-08-16T09:10:28.472Z,98041.02
2018-08-16T09:11:32.535Z,98044.23
2018-08-16T09:12:36.799Z,98052.98
2018-08-16T09:13:42.284Z,98049.24
2018-08-16T09:14:49.992Z,98048.01
2018-08-16T09:15:56.692Z,98052.38
2018-08-16T09:17:01.141Z,98053.28
2018-08-16T09:18:06.324Z,98050.66
2018-08-16T09:19:17.461Z,98048.62
2018-08-16T09:20:22.675Z,98045.32
2018-08-16T09:21:27.649Z,98048.06
2018-08-16T09:22:31.113Z,98048.90
2018-08-16T09:23:34.562Z,98046.95
2018-08-16T09:24:38.336Z,98048.94
2018-08-16T09:25:42.607Z,98039.23
2018-08-16T09:26:47.318Z,98051.11
2018-08-16T09:27:51.750Z,98037.44
2018-08-16T09:30:05.007Z,98036.00
2018-08-16T09:31:09.580Z,98031.91
2018-08-16T09:32:13.056Z,98030.77
2018-08-16T09:33:17.568Z,98034.30
2018-08-16T09:34:23.427Z,98028.69
2018-08-16T09:35:27.794Z,98026.84
2018-08-16T09:36:32.208Z,98030.72
2018-08-16T09:37:40.283Z,98030.30
2018-08-16T09:38:48.022Z,98031.59
2018-08-16T09:39:52.831Z,98032.50
2018-08-16T09:40:56.625Z,98032.11
2018-08-16T09:42:00.112Z,98021.69
2018-08-16T09:43:03.455Z,98026.78
2018-08-16T09:44:07.229Z,98025.24
2018-08-16T09:45:10.497Z,98036.78
2018-08-16T09:46:14.124Z,98030.55
2018-08-16T09:47:17.831Z,98026.54
2018-08-16T09:48:21.062Z,98026.33
2018-08-16T09:49:25.738Z,98022.19
2018-08-16T09:50:29.539Z,98020.20
2018-08-16T09:51:34.022Z,98019.13
2018-08-16T09:52:38.142Z,98017.30
2018-08-16T09:53:42.090Z,98022.05
2018-08-16T09:54:47.045Z,98010.71
2018-08-16T09:55:50.513Z,98011.59
2018-08-16T09:56:55.594Z,98015.20
2018-08-16T09:57:59.309Z,98017.61
2018-08-16T09:59:02.864Z,98011.66
2018-08-16T10:00:07.273Z,98012.25
2018-08-16T10:01:12.641Z,98009.77
2018-08-16T10:02:16.451Z,98010.11
2018-08-16T10:03:20.217Z,98008.02
2018-08-16T10:04:25.960Z,98005.89
2018-08-16T10:05:31.552Z,98001.95
2018-08-16T10:06:36.702Z,98004.27
2018-08-16T10:07:40.476Z,98000.47
2018-08-16T10:08:44.833Z,97998.65
2018-08-16T10:09:48.290Z,98007.92
2018-08-16T10:10:52.688Z,97999.92
2018-08-16T10:12:00.489Z,98022.19
2018-08-16T10:13:04.930Z,98016.30
2018-08-16T10:14:10.742Z,98005.41
2018-08-16T10:15:14.127Z,98010.98
2018-08-16T10:16:18.343Z,98013.55
2018-08-16T10:17:22.353Z,98007.41
2018-08-16T10:18:27.593Z,98012.63
2018-08-16T10:19:32.725Z,97999.31
2018-08-16T10:20:36.726Z,98001.66
2018-08-16T10:21:41.269Z,97994.47
2018-08-16T10:22:45.355Z,97983.90
2018-08-16T10:23:48.846Z,97994.36
2018-08-16T10:24:52.981Z,97993.86
2018-08-16T10:25:57.350Z,97999.31
2018-08-16T10:27:02.803Z,97994.10
2018-08-16T10:28:07.666Z,97996.14
2018-08-16T10:29:18.607Z,97983.89
2018-08-16T10:30:29.019Z,97983.18
2018-08-16T10:31:40.772Z,97985.96
2018-08-16T10:32:44.372Z,97983.24
2018-08-16T10:33:49.272Z,97984.69
2018-08-16T10:34:53.756Z,97979.43
2018-08-16T10:36:02.666Z,97974.82
2018-08-16T10:37:06.898Z,97973.50
2018-08-16T10:38:12.130Z,97975.18
2018-08-16T10:39:18.615Z,97969.31
2018-08-16T10:40:21.519Z,97968.34
2018-08-16T10:41:24.670Z,97971.90
2018-08-16T10:42:30.693Z,97974.41
2018-08-16T10:43:38.416Z,97974.64
2018-08-16T10:44:42.057Z,97971.08
2018-08-16T10:45:45.377Z,97975.39
2018-08-16T10:46:48.547Z,97976.75
2018-08-16T10:47:51.496Z,97980.13
2018-08-16T10:48:54.592Z,97976.63
2018-08-16T10:49:57.623Z,97974.05
2018-08-16T10:51:01.289Z,97984.20
2018-08-16T10:52:04.749Z,97965.89
2018-08-16T10:53:07.750Z,97968.13
2018-08-16T10:54:11.373Z,97983.44
2018-08-16T10:55:14.493Z,97973.77
2018-08-16T10:56:17.636Z,97983.21
2018-08-16T10:57:21.545Z,97982.54
2018-08-16T10:58:24.548Z,97972.33
2018-08-16T10:59:27.448Z,97973.06
2018-08-16T11:00:31.520Z,97976.41
2018-08-16T11:01:34.402Z,97973.89
2018-08-16T11:02:38.516Z,97970.43
2018-08-16T11:03:41.689Z,97973.97
2018-08-16T11:04:44.767Z,97974.00
2018-08-16T11:05:48.242Z,97973.22
2018-08-16T11:06:51.276Z,97975.15
2018-08-16T11:07:55.238Z,97974.63
2018-08-16T11:08:58.158Z,97970.84
2018-08-16T11:10:02.510Z,97969.27
2018-08-16T11:11:06.394Z,97966.98
2018-08-16T11:12:09.297Z,97961.66
2018-08-16T11:13:12.235Z,97952.88
2018-08-16T11:14:18.915Z,97953.91
2018-08-16T11:15:24.089Z,97956.13
2018-08-16T11:16:27.392Z,97950.86
2018-08-16T11:17:33.909Z,97969.41
2018-08-16T11:18:36.791Z,97957.61
2018-08-16T11:19:40.463Z,97955.41
2018-08-16T11:20:44.153Z,97955.55
2018-08-16T11:21:48.166Z,97962.45
2018-08-16T11:22:51.360Z,97958.02
2018-08-16T11:23:57.343Z,97965.09
2018-08-16T11:25:02.156Z,97947.30
2018-08-16T11:26:06.312Z,97959.06
2018-08-16T11:27:10.543Z,97954.59
2018-08-16T11:28:14.365Z,97947.88
2018-08-16T11:29:18.663Z,97950.63
2018-08-16T11:30:21.571Z,97956.86
2018-08-16T11:31:24.492Z,97954.27
2018-08-16T11:32:27.317Z,97952.09
2018-08-16T11:33:31.442Z,97952.84
2018-08-16T11:34:34.324Z,97957.47
2018-08-16T11:35:37.539Z,97945.14
2018-08-16T11:36:40.492Z,97945.05
2018-08-16T11:37:43.398Z,97938.71
2018-08-16T11:38:46.303Z,97936.48
2018-08-16T11:39:49.219Z,97938.03
2018-08-16T11:40:52.153Z,97938.61
2018-08-16T11:41:55.352Z,97935.77
2018-08-16T11:42:58.252Z,97937.00
2018-08-16T11:44:01.575Z,97924.53
2018-08-16T11:45:05.584Z,97930.11
2018-08-16T11:46:08.611Z,97927.61
2018-08-16T11:47:11.473Z,97929.72
2018-08-16T11:48:14.677Z,97924.66
2018-08-16T11:49:17.593Z,97923.52
2018-08-16T11:50:20.583Z,97935.06
2018-08-16T11:51:23.422Z,97930.22
2018-08-16T11:52:29.141Z,97921.05
2018-08-16T11:53:32.687Z,97926.30
2018-08-16T11:54:36.823Z,97919.95
2018-08-16T11:55:40.432Z,97923.77
2018-08-16T11:56:43.358Z,97914.50
2018-08-16T11:57:47.523Z,97911.46
2018-08-16T11:58:50.430Z,97913.99
2018-08-16T11:59:55.647Z,97913.94
2018-08-16T12:00:58.790Z,97915.20
2018-08-16T12:02:01.885Z,97915.17
2018-08-16T12:03:04.739Z,97922.56
2018-08-16T12:04:07.675Z,97909.55
2018-08-16T12:05:10.510Z,97920.83
2018-08-16T12:06:15.126Z,97925.83
2018-08-16T12:07:18.743Z,97907.41
2018-08-16T12:08:21.705Z,97924.70
2018-08-16T12:09:26.135Z,97916.84
2018-08-16T12:10:28.978Z,97919.86
2018-08-16T12:11:35.303Z,97907.08
2018-08-16T12:12:38.401Z,97907.72
2018-08-16T12:13:41.873Z,97908.09
2018-08-16T12:14:44.788Z,97898.95
2018-08-16T12:15:47.941Z,97899.89
2018-08-16T12:16:51.769Z,97915.52
2018-08-16T12:17:55.425Z,97911.00
2018-08-16T12:19:00.431Z,97921.31
2018-08-16T12:20:04.543Z,97914.54
2018-08-16T12:21:10.828Z,97899.05
2018-08-16T12:22:14.811Z,97894.83
2018-08-16T12:24:33.497Z,97899.90
2018-08-16T12:25:36.361Z,97910.02
2018-08-16T12:26:40.581Z,97901.97
2018-08-16T12:27:45.527Z,97894.75
2018-08-16T12:28:54.575Z,97902.33
2018-08-16T12:30:03.277Z,97893.01
2018-08-16T12:31:07.734Z,97891.59
2018-08-16T12:32:11.466Z,97892.75
2018-08-16T12:33:19.725Z,97890.69
2018-08-16T12:34:27.254Z,97885.84
2018-08-16T12:35:31.679Z,97892.83
2018-08-16T12:36:37.099Z,97896.30
2018-08-16T12:37:41.484Z,97885.04
2018-08-16T12:38:44.342Z,97885.61
2018-08-16T12:39:47.397Z,97888.34
2018-08-16T12:40:51.309Z,97882.21
2018-08-16T12:41:54.415Z,97894.67
2018-08-16T12:42:57.379Z,97892.16
2018-08-16T12:44:00.571Z,97879.55
2018-08-16T12:45:03.530Z,97881.39
2018-08-16T12:46:08.537Z,97873.87
2018-08-16T12:47:12.579Z,97877.59
2018-08-16T12:48:16.658Z,97874.92
2018-08-16T12:49:19.748Z,97866.69
2018-08-16T12:50:23.403Z,97877.09
2018-08-16T12:51:28.218Z,97880.36
2018-08-16T12:52:33.485Z,97867.80
2018-08-16T12:53:38.135Z,97866.73
2018-08-16T12:54:49.674Z,97867.31
2018-08-16T12:55:54.642Z,97863.48
2018-08-16T12:57:01.508Z,97865.45
2018-08-16T12:58:05.155Z,97871.80
2018-08-16T12:59:08.489Z,97875.38
2018-08-16T13:00:11.658Z,97876.95
2018-08-16T13:01:21.232Z,97875.52
2018-08-16T13:02:25.277Z,97871.38
2018-08-16T13:04:40.723Z,97867.67
2018-08-16T13:05:46.781Z,97875.51
2018-08-16T13:06:52.066Z,97870.39
2018-08-16T13:07:56.515Z,97870.18
2018-08-16T13:09:00.268Z,97865.36
2018-08-16T13:10:05.666Z,97860.56
2018-08-16T13:11:09.839Z,97863.02
2018-08-16T13:12:12.743Z,97876.27
2018-08-16T13:13:16.834Z,97870.85
2018-08-16T13:14:20.813Z,97865.36
2018-08-16T13:15:24.540Z,97869.46
2018-08-16T13:16:27.392Z,97861.63
2018-08-16T13:17:30.250Z,97859.64
2018-08-16T13:18:34.125Z,97862.27
2018-08-16T13:21:55.801Z,97855.61
2018-08-16T13:22:58.684Z,97857.78
2018-08-16T13:24:03.531Z,97846.61
2018-08-16T13:25:07.282Z,97853.38
2018-08-16T13:26:10.483Z,97855.86
2018-08-16T13:27:13.354Z,97855.17
2018-08-16T13:28:18.624Z,97849.34
2018-08-16T13:29:24.575Z,97856.63
2018-08-16T13:30:29.212Z,97862.37
2018-08-16T13:31:32.615Z,97856.95
2018-08-16T13:32:36.761Z,97857.47
2018-08-16T13:33:40.499Z,97850.76
2018-08-16T13:34:45.319Z,97845.41
2018-08-16T13:35:49.231Z,97832.05
2018-08-16T13:36:57.272Z,97848.39
2018-08-16T13:38:00.256Z,97849.85
2018-08-16T13:39:04.198Z,97840.23
2018-08-16T13:40:08.708Z,97857.83
2018-08-16T13:41:12.735Z,97854.29
2018-08-16T13:42:16.581Z,97852.81
2018-08-16T13:43:19.505Z,97861.08
2018-08-16T13:44:22.621Z,97854.86
2018-08-16T13:45:26.543Z,97844.69
2018-08-16T13:46:29.435Z,97845.60
2018-08-16T13:47:33.302Z,97845.50
2018-08-16T13:48:36.885Z,97850.71
2018-08-16T13:49:42.798Z,97853.33
2018-08-16T13:50:49.353Z,97838.98
2018-08-16T13:51:52.501Z,97837.52
2018-08-16T13:52:55.413Z,97837.59
2018-08-16T13:54:03.443Z,97836.48
2018-08-16T13:55:08.070Z,97838.91
2018-08-16T13:56:12.557Z,97846.10
2018-08-16T13:57:15.407Z,97838.53
2018-08-16T13:58:19.515Z,97839.34
2018-08-16T13:59:23.047Z,97839.64
2018-08-16T14:00:25.923Z,97838.50
2018-08-16T14:01:30.439Z,97825.50
2018-08-16T14:02:34.113Z,97813.73
2018-08-16T14:03:37.680Z,97830.23
2018-08-16T14:04:44.563Z,97833.91
2018-08-16T14:05:47.484Z,97817.20
2018-08-16T14:06:50.383Z,97818.61
2018-08-16T14:07:53.603Z,97820.69
2018-08-16T14:08:57.471Z,97822.47
2018-08-16T14:10:00.344Z,97835.26
2018-08-16T14:11:03.593Z,97831.53
2018-08-16T14:12:06.445Z,97828.23
2018-08-16T14:13:09.262Z,97825.90
2018-08-16T14:14:13.130Z,97813.97
2018-08-16T14:15:16.637Z,97821.00
2018-08-16T14:16:19.971Z,97822.17
2018-08-16T14:17:23.274Z,97814.17
2018-08-16T14:18:27.264Z,97815.13
2018-08-16T14:19:30.204Z,97807.79
2018-08-16T14:20:33.695Z,97792.72
2018-08-16T14:21:37.152Z,97809.64
2018-08-16T14:22:40.161Z,97815.16
2018-08-16T14:23:47.557Z,97808.28
2018-08-16T14:24:50.441Z,97804.19
2018-08-16T14:25:53.395Z,97798.31
2018-08-16T14:26:56.469Z,97792.52
2018-08-16T14:27:59.347Z,97812.16
2018-08-16T14:29:04.047Z,97809.02
2018-08-16T14:30:07.179Z,97808.84
2018-08-16T14:31:10.071Z,97803.12
2018-08-16T14:32:13.791Z,97800.69
2018-08-16T14:33:18.064Z,97802.96
2018-08-16T14:34:21.057Z,97807.38
2018-08-16T14:35:23.966Z,97807.84
2018-08-16T14:36:28.329Z,97807.91
2018-08-16T14:37:31.505Z,97797.83
2018-08-16T14:38:35.477Z,97801.06
2018-08-16T14:39:38.390Z,97795.81
2018-08-16T14:40:41.271Z,97794.70
2018-08-16T14:43:01.863Z,97781.47
2018-08-16T14:44:05.370Z,97792.41
2018-08-16T14:45:08.297Z,97789.81
2018-08-16T14:46:11.253Z,97793.52
2018-08-16T14:47:14.173Z,97784.63
2018-08-16T14:48:17.284Z,97790.13
2018-08-16T14:49:20.963Z,97798.27
2018-08-16T14:50:24.334Z,97791.54
2018-08-16T14:51:27.802Z,97792.92
2018-08-16T14:52:31.515Z,97791.14
2018-08-16T14:53:36.343Z,97797.77
2018-08-16T14:54:39.498Z,97791.86
2018-08-16T14:55:42.873Z,97787.70
2018-08-16T14:56:45.908Z,97783.27
2018-08-16T14:57:48.873Z,97781.98
2018-08-16T14:58:52.521Z,97780.76
2018-08-16T14:59:55.755Z,97785.70
2018-08-16T15:00:59.677Z,97778.93
2018-08-16T15:02:03.142Z,97781.92
2018-08-16T15:03:06.682Z,97785.27
2018-08-16T15:04:11.704Z,97782.78
2018-08-16T15:05:14.603Z,97779.16
2018-08-16T15:06:17.507Z,97772.83
2018-08-16T15:07:21.784Z,97772.52
2018-08-16T15:08:25.291Z,97766.25
2018-08-16T15:10:40.809Z,97773.58
2018-08-16T15:11:44.650Z,97775.91
2018-08-16T15:12:47.589Z,97776.25
2018-08-16T15:13:54.242Z,97782.47
2018-08-16T15:14:57.259Z,97775.67
2018-08-16T15:16:00.535Z,97776.46
2018-08-16T15:17:03.562Z,97773.96
2018-08-16T15:18:07.672Z,97772.90
2018-08-16T15:19:10.591Z,97765.11
2018-08-16T15:20:13.811Z,97759.05
2018-08-16T15:21:16.913Z,97765.00
2018-08-16T15:22:19.850Z,97757.88
2018-08-16T15:23:22.751Z,97763.06
2018-08-16T15:24:25.624Z,97763.07
2018-08-16T15:25:29.437Z,97762.73
2018-08-16T15:26:36.535Z,97758.91
2018-08-16T15:27:40.512Z,97751.75
2018-08-16T15:28:43.428Z,97763.88
2018-08-16T15:29:46.463Z,97757.16
2018-08-16T15:30:49.671Z,97758.04
2018-08-16T15:31:52.613Z,97741.12
2018-08-16T15:32:56.480Z,97747.30
2018-08-16T15:33:59.505Z,97759.55
2018-08-16T15:35:05.271Z,97745.45
2018-08-16T15:36:08.212Z,97750.81
2018-08-16T15:37:11.300Z,97750.39
2018-08-16T15:38:14.171Z,97749.69
2018-08-16T15:39:17.339Z,97748.62
2018-08-16T15:40:20.373Z,97748.23
2018-08-16T15:41:23.936Z,97741.41
2018-08-16T15:42:26.922Z,97742.80
2018-08-16T15:43:29.839Z,97757.63
2018-08-16T15:44:33.544Z,97751.33
2018-08-16T15:45:37.506Z,97745.06
2018-08-16T15:46:40.543Z,97751.13
2018-08-16T15:47:43.408Z,97742.86
2018-08-16T15:48:46.258Z,97744.67
2018-08-16T15:49:50.257Z,97744.82
2018-08-16T15:50:53.153Z,97739.19
2018-08-16T15:51:56.632Z,97733.45
2018-08-16T15:52:59.558Z,97733.37
2018-08-16T15:54:02.656Z,97736.23
2018-08-16T15:55:06.669Z,97730.73
2018-08-16T15:56:09.804Z,97728.43
2018-08-16T15:57:13.509Z,97727.38
2018-08-16T15:58:16.712Z,97724.33
2018-08-16T15:59:19.809Z,97724.51
2018-08-16T16:00:22.637Z,97730.45
2018-08-16T16:01:25.571Z,97721.14
2018-08-16T16:02:28.446Z,97727.00
2018-08-16T16:03:31.860Z,97715.36
2018-08-16T16:04:35.216Z,97725.00
2018-08-16T16:05:38.146Z,97721.37
2018-08-16T16:06:41.057Z,97725.80
2018-08-16T16:07:44.635Z,97730.75
2018-08-16T16:08:47.561Z,97732.90
2018-08-16T16:09:53.376Z,97731.31
2018-08-16T16:10:58.549Z,97725.92
2018-08-16T16:12:02.521Z,97726.34
2018-08-16T17:26:26.624Z,97685.64
2018-08-16T17:27:32.717Z,97688.29
2018-08-16T17:28:35.951Z,97689.44
2018-08-16T17:30:48.463Z,97691.48
2018-08-16T17:31:55.250Z,97686.23
2018-08-16T17:32:58.710Z,97688.05
2018-08-16T17:34:03.402Z,97688.80
2018-08-16T17:35:06.532Z,97689.03
2018-08-16T17:36:10.231Z,97687.14
2018-08-16T17:37:17.521Z,97683.95
2018-08-16T17:38:20.785Z,97687.38
2018-08-16T17:39:24.695Z,97683.95
2018-08-16T17:40:29.713Z,97681.14
2018-08-16T17:41:35.684Z,97679.50
2018-08-16T17:42:38.572Z,97680.04
2018-08-16T17:43:43.566Z,97684.87
2018-08-16T17:44:46.735Z,97685.52
2018-08-16T17:45:50.423Z,97682.02
2018-08-16T17:46:56.237Z,97683.55
2018-08-16T17:48:00.731Z,97684.69
2018-08-16T17:49:05.784Z,97679.57
2018-08-16T17:50:08.695Z,97678.41
2018-08-16T17:51:13.409Z,97685.88
2018-08-16T17:52:16.301Z,97685.06
2018-08-16T17:53:20.233Z,97682.11
2018-08-16T17:54:23.078Z,97683.54
2018-08-16T17:55:25.912Z,97684.77
2018-08-16T17:56:28.754Z,97685.14
2018-08-16T17:57:33.114Z,97683.63
2018-08-16T17:58:36.565Z,97683.72
2018-08-16T17:59:42.523Z,97686.80
2018-08-16T18:00:47.639Z,97680.66
2018-08-16T18:01:50.606Z,97683.72
2018-08-16T18:02:55.415Z,97685.20
2018-08-16T18:04:01.702Z,97683.52
2018-08-16T18:05:05.238Z,97680.28
2018-08-16T18:06:11.028Z,97683.37
2018-08-16T18:07:16.112Z,97679.66
2018-08-16T18:08:20.423Z,97680.60
2018-08-16T18:09:26.522Z,97684.41
2018-08-16T18:10:31.100Z,97680.28
2018-08-16T18:11:35.384Z,97677.34
2018-08-16T18:12:38.492Z,97677.50
2018-08-16T18:13:43.171Z,97677.23
2018-08-16T18:14:47.824Z,97678.56
2018-08-16T18:15:54.337Z,97680.84
2018-08-16T18:16:57.768Z,97678.25
2018-08-16T18:18:01.452Z,97677.31
2018-08-16T18:19:04.859Z,97681.78
2018-08-16T18:20:08.640Z,97680.73
2018-08-16T18:21:11.825Z,97679.83
2018-08-16T18:22:16.721Z,97678.25
2018-08-16T18:23:22.318Z,97681.33
2018-08-16T18:24:26.566Z,97681.44
2018-08-16T18:25:32.109Z,97671.26
2018-08-16T18:26:38.111Z,97678.36
2018-08-16T18:27:45.714Z,97676.25
2018-08-16T18:28:49.362Z,97678.60
2018-08-16T18:29:55.283Z,97680.59
2018-08-16T18:31:00.123Z,97677.80
2018-08-16T18:32:05.646Z,97678.88
2018-08-16T18:33:11.819Z,97682.45
2018-08-16T18:34:15.654Z,97680.21
2018-08-16T18:35:21.287Z,97682.06
2018-08-16T18:36:30.525Z,97681.14
2018-08-16T18:37:36.020Z,97685.25
2018-08-16T18:38:41.910Z,97687.22
2018-08-16T18:39:46.783Z,97691.87
2018-08-16T18:40:52.829Z,97689.41
2018-08-16T18:42:00.534Z,97692.75
2018-08-16T18:43:06.282Z,97687.97
2018-08-16T18:44:11.601Z,97696.09
2018-08-16T18:46:33.600Z,97699.50
2018-08-16T18:47:37.955Z,97693.56
2018-08-16T18:48:43.050Z,97694.09
2018-08-16T18:49:47.621Z,97691.13
2018-08-16T18:50:52.000Z,97697.13
2018-08-16T18:51:56.485Z,97701.94
2018-08-16T18:53:00.299Z,97696.02
2018-08-16T18:54:04.109Z,97696.64
2018-08-16T18:55:11.301Z,97700.31
2018-08-16T18:56:15.184Z,97699.75
2018-08-16T18:57:18.716Z,97704.25
2018-08-16T18:58:21.615Z,97705.53
2018-08-16T18:59:26.090Z,97699.55
2018-08-16T19:00:30.642Z,97705.30
2018-08-16T19:01:34.861Z,97711.30
2018-08-16T19:02:37.691Z,97713.73
2018-08-16T19:03:40.635Z,97711.56
2018-08-16T19:04:45.299Z,97713.65
2018-08-16T19:05:48.605Z,97711.45
2018-08-16T19:06:51.597Z,97708.78
2018-08-16T19:07:54.851Z,97714.72
2018-08-16T19:08:58.271Z,97713.65
2018-08-16T19:10:01.139Z,97716.94
2018-08-16T19:11:04.833Z,97714.72
2018-08-16T19:12:08.648Z,97723.21
2018-08-16T19:13:14.798Z,97725.56
2018-08-16T19:14:17.701Z,97725.35
2018-08-16T19:15:20.555Z,97726.41
2018-08-16T19:16:25.542Z,97725.01
2018-08-16T19:17:28.412Z,97725.59
2018-08-16T19:18:31.276Z,97733.66
2018-08-16T19:19:34.531Z,97728.58
2018-08-16T19:20:38.432Z,97725.50